sensor_id;sensor_type;location;lat;lon;timestamp;pressure;altitude;pressure_sealevel;temperature;humidity
23473;BME280;11909;52.516;13.564;2023-08-06T00:00:26;100171.91;;;16.95;100.00
23473;BME280;11909;52.516;13.564;2023-08-06T00:02:54;100173.91;;;16.94;100.00
23473;BME280;11909;52.516;13.564;2023-08-06T00:05:22;100175.84;;;16.94;100.00
23473;BME280;11909;52.516;13.564;2023-08-06T00:07:50;100186.13;;;16.93;100.00
23473;BME280;11909;52.516;13.564;2023-08-06T00:10:18;100182.41;;;16.89;100.00
23473;BME280;11909;52.516;13.564;2023-08-06T00:12:47;100180.44;;;16.89;100.00
23473;BME280;11909;52.516;13.564;2023-08-06T00:15:16;100178.81;;;16.88;100.00
23473;BME280;11909;52.516;13.564;2023-08-06T00:17:44;100168.88;;;16.87;100.00
23473;BME280;11909;52.516;13.564;2023-08-06T00:20:12;100163.34;;;16.87;100.00
23473;BME280;11909;52.516;13.564;2023-08-06T00:22:40;100153.75;;;16.85;100.00
23473;BME280;11909;52.516;13.564;2023-08-06T00:25:08;100154.56;;;16.85;100.00
23473;BME280;11909;52.516;13.564;2023-08-06T00:27:36;100155.38;;;16.86;100.00
23473;BME280;11909;52.516;13.564;2023-08-06T00:30:07;100155.03;;;16.87;100.00
23473;BME280;11909;52.516;13.564;2023-08-06T00:32:35;100157.78;;;16.87;100.00
23473;BME280;11909;52.516;13.564;2023-08-06T00:35:03;100156.31;;;16.90;100.00
23473;BME280;11909;52.516;13.564;2023-08-06T00:37:31;100159.78;;;16.87;100.00
23473;BME280;11909;52.516;13.564;2023-08-06T00:39:59;100155.38;;;16.86;100.00
23473;BME280;11909;52.516;13.564;2023-08-06T00:42:27;100143.78;;;16.84;100.00
23473;BME280;11909;52.516;13.564;2023-08-06T00:44:55;100146.25;;;16.85;100.00
23473;BME280;11909;52.516;13.564;2023-08-06T00:47:24;100149.00;;;16.85;100.00
23473;BME280;11909;52.516;13.564;2023-08-06T00:49:52;100151.78;;;16.85;100.00
23473;BME280;11909;52.516;13.564;2023-08-06T00:52:20;100145.44;;;16.85;100.00
23473;BME280;11909;52.516;13.564;2023-08-06T00:54:48;100144.47;;;16.81;100.00
23473;BME280;11909;52.516;13.564;2023-08-06T00:57:17;100139.28;;;16.79;100.00
23473;BME280;11909;52.516;13.564;2023-08-06T00:59:45;100147.59;;;16.79;100.00
23473;BME280;11909;52.516;13.564;2023-08-06T01:02:13;100146.78;;;16.78;100.00
23473;BME280;11909;52.516;13.564;2023-08-06T01:04:43;100143.53;;;16.76;100.00
23473;BME280;11909;52.516;13.564;2023-08-06T01:07:28;100143.06;;;16.74;100.00
23473;BME280;11909;52.516;13.564;2023-08-06T01:10:11;100139.34;;;16.70;100.00
23473;BME280;11909;52.516;13.564;2023-08-06T01:12:48;100137.25;;;16.67;100.00
23473;BME280;11909;52.516;13.564;2023-08-06T01:15:21;100131.25;;;16.65;100.00
23473;BME280;11909;52.516;13.564;2023-08-06T01:17:50;100141.19;;;16.66;100.00
23473;BME280;11909;52.516;13.564;2023-08-06T01:20:19;100140.34;;;16.66;100.00
23473;BME280;11909;52.516;13.564;2023-08-06T01:22:48;100138.72;;;16.65;100.00
23473;BME280;11909;52.516;13.564;2023-08-06T01:25:16;100123.72;;;16.66;100.00
23473;BME280;11909;52.516;13.564;2023-08-06T01:27:47;100124.88;;;16.65;100.00
23473;BME280;11909;52.516;13.564;2023-08-06T01:30:25;100118.88;;;16.62;100.00
23473;BME280;11909;52.516;13.564;2023-08-06T01:32:58;100115.47;;;16.57;100.00
23473;BME280;11909;52.516;13.564;2023-08-06T01:35:28;100117.31;;;16.53;100.00
23473;BME280;11909;52.516;13.564;2023-08-06T01:37:58;100113.59;;;16.48;100.00
23473;BME280;11909;52.516;13.564;2023-08-06T01:40:27;100115.88;;;16.46;100.00
23473;BME280;11909;52.516;13.564;2023-08-06T01:42:56;100123.03;;;16.47;100.00
23473;BME280;11909;52.516;13.564;2023-08-06T01:45:24;100116.38;;;16.48;100.00
23473;BME280;11909;52.516;13.564;2023-08-06T01:47:51;100115.69;;;16.52;100.00
23473;BME280;11909;52.516;13.564;2023-08-06T01:50:20;100112.59;;;16.53;100.00
23473;BME280;11909;52.516;13.564;2023-08-06T01:52:47;100105.06;;;16.54;100.00
23473;BME280;11909;52.516;13.564;2023-08-06T01:55:17;100099.53;;;16.54;100.00
23473;BME280;11909;52.516;13.564;2023-08-06T01:57:45;100094.00;;;16.54;100.00
23473;BME280;11909;52.516;13.564;2023-08-06T02:00:13;100093.06;;;16.49;100.00
23473;BME280;11909;52.516;13.564;2023-08-06T02:02:41;100091.91;;;16.51;100.00
23473;BME280;11909;52.516;13.564;2023-08-06T02:05:10;100089.13;;;16.51;100.00
23473;BME280;11909;52.516;13.564;2023-08-06T02:07:37;100087.19;;;16.51;100.00
23473;BME280;11909;52.516;13.564;2023-08-06T02:10:06;100088.00;;;16.52;100.00
23473;BME280;11909;52.516;13.564;2023-08-06T02:12:35;100090.75;;;16.52;100.00
23473;BME280;11909;52.516;13.564;2023-08-06T02:15:05;100081.31;;;16.53;100.00
23473;BME280;11909;52.516;13.564;2023-08-06T02:17:33;100078.06;;;16.51;100.00
23473;BME280;11909;52.516;13.564;2023-08-06T02:20:00;100078.25;;;16.45;100.00
23473;BME280;11909;52.516;13.564;2023-08-06T02:22:29;100074.56;;;16.41;100.00
23473;BME280;11909;52.516;13.564;2023-08-06T02:24:56;100076.84;;;16.39;100.00
23473;BME280;11909;52.516;13.564;2023-08-06T02:27:25;100066.91;;;16.38;100.00
23473;BME280;11909;52.516;13.564;2023-08-06T02:29:54;100067.56;;;16.35;100.00
23473;BME280;11909;52.516;13.564;2023-08-06T02:32:22;100065.47;;;16.32;100.00
23473;BME280;11909;52.516;13.564;2023-08-06T02:34:50;100058.78;;;16.33;100.00
23473;BME280;11909;52.516;13.564;2023-08-06T02:37:18;100053.72;;;16.35;100.00
23473;BME280;11909;52.516;13.564;2023-08-06T02:39:46;100053.94;;;16.30;100.00
23473;BME280;11909;52.516;13.564;2023-08-06T02:42:14;100052.97;;;16.26;100.00
23473;BME280;11909;52.516;13.564;2023-08-06T02:44:42;100048.91;;;16.23;100.00
23473;BME280;11909;52.516;13.564;2023-08-06T02:47:11;100064.06;;;16.26;100.00
23473;BME280;11909;52.516;13.564;2023-08-06T02:49:39;100058.53;;;16.26;100.00
23473;BME280;11909;52.516;13.564;2023-08-06T02:52:07;100050.06;;;16.22;100.00
23473;BME280;11909;52.516;13.564;2023-08-06T02:54:35;100042.44;;;16.19;100.00
23473;BME280;11909;52.516;13.564;2023-08-06T02:57:04;100049.59;;;16.20;100.00
23473;BME280;11909;52.516;13.564;2023-08-06T02:59:32;100057.44;;;16.18;100.00
23473;BME280;11909;52.516;13.564;2023-08-06T03:02:00;100052.72;;;16.18;100.00
23473;BME280;11909;52.516;13.564;2023-08-06T03:04:29;100051.75;;;16.14;100.00
23473;BME280;11909;52.516;13.564;2023-08-06T03:06:57;100054.19;;;16.16;100.00
23473;BME280;11909;52.516;13.564;2023-08-06T03:09:24;100060.03;;;16.14;100.00
23473;BME280;11909;52.516;13.564;2023-08-06T03:11:52;100050.94;;;16.14;100.00
23473;BME280;11909;52.516;13.564;2023-08-06T03:14:21;100054.19;;;16.16;100.00
23473;BME280;11909;52.516;13.564;2023-08-06T03:16:48;100046.56;;;16.13;100.00
23473;BME280;11909;52.516;13.564;2023-08-06T03:19:17;100035.00;;;16.11;100.00
23473;BME280;11909;52.516;13.564;2023-08-06T03:21:46;100026.25;;;16.09;100.00
23473;BME280;11909;52.516;13.564;2023-08-06T03:24:14;100029.00;;;16.09;100.00
23473;BME280;11909;52.516;13.564;2023-08-06T03:26:42;100021.03;;;16.07;100.00
23473;BME280;11909;52.516;13.564;2023-08-06T03:29:10;100016.31;;;16.08;100.00
23473;BME280;11909;52.516;13.564;2023-08-06T03:31:37;100014.69;;;16.07;100.00
23473;BME280;11909;52.516;13.564;2023-08-06T03:34:05;100006.25;;;16.03;100.00
23473;BME280;11909;52.516;13.564;2023-08-06T03:36:33;99994.91;;;15.96;100.00
23473;BME280;11909;52.516;13.564;2023-08-06T03:39:03;100003.53;;;15.94;100.00
23473;BME280;11909;52.516;13.564;2023-08-06T03:41:31;99997.38;;;15.88;100.00
23473;BME280;11909;52.516;13.564;2023-08-06T03:44:00;99991.34;;;15.86;100.00
23473;BME280;11909;52.516;13.564;2023-08-06T03:46:29;99993.63;;;15.84;100.00
23473;BME280;11909;52.516;13.564;2023-08-06T03:49:00;99985.31;;;15.84;100.00
23473;BME280;11909;52.516;13.564;2023-08-06T03:51:28;99985.53;;;15.79;100.00
23473;BME280;11909;52.516;13.564;2023-08-06T03:53:56;99988.28;;;15.79;100.00
23473;BME280;11909;52.516;13.564;2023-08-06T03:56:25;99985.84;;;15.77;100.00
23473;BME280;11909;52.516;13.564;2023-08-06T03:58:54;99974.66;;;15.74;100.00
23473;BME280;11909;52.516;13.564;2023-08-06T04:01:22;99980.78;;;15.80;100.00
23473;BME280;11909;52.516;13.564;2023-08-06T04:03:49;99969.72;;;15.80;100.00
23473;BME280;11909;52.516;13.564;2023-08-06T04:06:17;99975.94;;;15.76;100.00
23473;BME280;11909;52.516;13.564;2023-08-06T04:08:45;99969.59;;;15.76;100.00
23473;BME280;11909;52.516;13.564;2023-08-06T04:11:13;99962.78;;;15.73;100.00
23473;BME280;11909;52.516;13.564;2023-08-06T04:13:43;99962.78;;;15.73;100.00
23473;BME280;11909;52.516;13.564;2023-08-06T04:16:11;99957.59;;;15.72;100.00
23473;BME280;11909;52.516;13.564;2023-08-06T04:18:41;99960.81;;;15.74;100.00
23473;BME280;11909;52.516;13.564;2023-08-06T04:21:09;99956.91;;;15.75;100.00
23473;BME280;11909;52.516;13.564;2023-08-06T04:23:37;99958.53;;;15.76;100.00
23473;BME280;11909;52.516;13.564;2023-08-06T04:26:05;99954.94;;;15.75;100.00
23473;BME280;11909;52.516;13.564;2023-08-06T04:28:33;99956.56;;;15.76;100.00
23473;BME280;11909;52.516;13.564;2023-08-06T04:31:02;99945.38;;;15.73;100.00
23473;BME280;11909;52.516;13.564;2023-08-06T04:33:30;99940.53;;;15.70;100.00
23473;BME280;11909;52.516;13.564;2023-08-06T04:35:59;99935.94;;;15.74;100.00
23473;BME280;11909;52.516;13.564;2023-08-06T04:38:27;99934.50;;;15.68;100.00
23473;BME280;11909;52.516;13.564;2023-08-06T04:40:55;99934.50;;;15.68;100.00
23473;BME280;11909;52.516;13.564;2023-08-06T04:43:23;99925.06;;;15.69;100.00
23473;BME280;11909;52.516;13.564;2023-08-06T04:45:55;99918.72;;;15.68;100.00
23473;BME280;11909;52.516;13.564;2023-08-06T04:48:24;99919.19;;;15.70;100.00
23473;BME280;11909;52.516;13.564;2023-08-06T04:50:52;99915.75;;;15.73;100.00
23473;BME280;11909;52.516;13.564;2023-08-06T04:53:21;99919.81;;;15.76;100.00
23473;BME280;11909;52.516;13.564;2023-08-06T04:55:49;99923.06;;;15.78;100.00
23473;BME280;11909;52.516;13.564;2023-08-06T04:58:17;99911.84;;;15.74;100.00
23473;BME280;11909;52.516;13.564;2023-08-06T05:00:45;99924.50;;;15.75;100.00
23473;BME280;11909;52.516;13.564;2023-08-06T05:03:13;99911.84;;;15.74;100.00
23473;BME280;11909;52.516;13.564;2023-08-06T05:05:42;99909.06;;;15.74;100.00
23473;BME280;11909;52.516;13.564;2023-08-06T05:08:14;99912.88;;;15.70;100.00
23473;BME280;11909;52.516;13.564;2023-08-06T05:10:43;99919.03;;;15.67;100.00
23473;BME280;11909;52.516;13.564;2023-08-06T05:13:12;99916.28;;;15.67;100.00
23473;BME280;11909;52.516;13.564;2023-08-06T05:15:39;99906.84;;;15.68;100.00
23473;BME280;11909;52.516;13.564;2023-08-06T05:18:09;99911.72;;;15.71;100.00
23473;BME280;11909;52.516;13.564;2023-08-06T05:20:39;99905.16;;;15.75;100.00
23473;BME280;11909;52.516;13.564;2023-08-06T05:23:08;99900.09;;;15.77;100.00
23473;BME280;11909;52.516;13.564;2023-08-06T05:25:36;99897.00;;;15.79;100.00
23473;BME280;11909;52.516;13.564;2023-08-06T05:28:04;99891.47;;;15.79;100.00
23473;BME280;11909;52.516;13.564;2023-08-06T05:30:32;99892.63;;;15.78;100.00
23473;BME280;11909;52.516;13.564;2023-08-06T05:33:00;99892.63;;;15.78;100.00
23473;BME280;11909;52.516;13.564;2023-08-06T05:35:28;99890.66;;;15.78;100.00
23473;BME280;11909;52.516;13.564;2023-08-06T05:37:56;99890.00;;;15.82;100.00
23473;BME280;11909;52.516;13.564;2023-08-06T05:40:25;99886.41;;;15.81;100.00
23473;BME280;11909;52.516;13.564;2023-08-06T05:42:54;99887.09;;;15.78;100.00
23473;BME280;11909;52.516;13.564;2023-08-06T05:45:22;99887.56;;;15.80;100.00
23473;BME280;11909;52.516;13.564;2023-08-06T05:47:50;99891.25;;;15.84;100.00
23473;BME280;11909;52.516;13.564;2023-08-06T05:50:20;99893.22;;;15.84;100.00
23473;BME280;11909;52.516;13.564;2023-08-06T05:52:48;99887.69;;;15.84;100.00
23473;BME280;11909;52.516;13.564;2023-08-06T05:55:16;99892.41;;;15.83;100.00
23473;BME280;11909;52.516;13.564;2023-08-06T05:57:45;99887.56;;;15.80;100.00
23473;BME280;11909;52.516;13.564;2023-08-06T06:00:13;99885.63;;;15.81;100.00
23473;BME280;11909;52.516;13.564;2023-08-06T06:02:42;99880.41;;;15.79;100.00
23473;BME280;11909;52.516;13.564;2023-08-06T06:05:09;99875.66;;;15.80;100.00
23473;BME280;11909;52.516;13.564;2023-08-06T06:07:37;99875.81;;;15.83;100.00
23473;BME280;11909;52.516;13.564;2023-08-06T06:10:06;99880.19;;;15.84;100.00
23473;BME280;11909;52.516;13.564;2023-08-06T06:12:34;99874.66;;;15.84;100.00
23473;BME280;11909;52.516;13.564;2023-08-06T06:15:05;99873.97;;;15.87;100.00
23473;BME280;11909;52.516;13.564;2023-08-06T06:17:33;99873.69;;;15.89;100.00
23473;BME280;11909;52.516;13.564;2023-08-06T06:20:01;99866.19;;;15.89;100.00
23473;BME280;11909;52.516;13.564;2023-08-06T06:22:30;99862.63;;;15.89;100.00
23473;BME280;11909;52.516;13.564;2023-08-06T06:24:58;99861.78;;;15.88;100.00
23473;BME280;11909;52.516;13.564;2023-08-06T06:27:26;99860.16;;;15.87;100.00
23473;BME280;11909;52.516;13.564;2023-08-06T06:29:54;99855.13;;;15.89;100.00
23473;BME280;11909;52.516;13.564;2023-08-06T06:32:23;99852.34;;;15.89;100.00
23473;BME280;11909;52.516;13.564;2023-08-06T06:34:51;99852.97;;;15.95;100.00
23473;BME280;11909;52.516;13.564;2023-08-06T06:37:19;99849.88;;;15.97;100.00
23473;BME280;11909;52.516;13.564;2023-08-06T06:39:47;99851.94;;;16.00;100.00
23473;BME280;11909;52.516;13.564;2023-08-06T06:42:15;99850.44;;;16.02;100.00
23473;BME280;11909;52.516;13.564;2023-08-06T06:44:43;99848.97;;;16.05;100.00
23473;BME280;11909;52.516;13.564;2023-08-06T06:47:11;99854.28;;;16.10;100.00
23473;BME280;11909;52.516;13.564;2023-08-06T06:49:40;99849.69;;;16.14;100.00
23473;BME280;11909;52.516;13.564;2023-08-06T06:52:08;99852.13;;;16.16;100.00
23473;BME280;11909;52.516;13.564;2023-08-06T06:54:36;99846.91;;;16.14;100.00
23473;BME280;11909;52.516;13.564;2023-08-06T06:57:04;99843.13;;;16.19;100.00
23473;BME280;11909;52.516;13.564;2023-08-06T06:59:33;99847.19;;;16.22;100.00
23473;BME280;11909;52.516;13.564;2023-08-06T07:02:01;99845.56;;;16.20;100.00
23473;BME280;11909;52.516;13.564;2023-08-06T07:04:29;99844.88;;;16.24;100.00
23473;BME280;11909;52.516;13.564;2023-08-06T07:06:58;99852.19;;;16.28;100.00
23473;BME280;11909;52.516;13.564;2023-08-06T07:09:26;99850.56;;;16.27;100.00
23473;BME280;11909;52.516;13.564;2023-08-06T07:11:54;99849.41;;;16.28;100.00
23473;BME280;11909;52.516;13.564;2023-08-06T07:14:24;99855.06;;;16.32;100.00
23473;BME280;11909;52.516;13.564;2023-08-06T07:16:52;99851.03;;;16.29;100.00
23473;BME280;11909;52.516;13.564;2023-08-06T07:19:20;99857.34;;;16.30;100.00
23473;BME280;11909;52.516;13.564;2023-08-06T07:21:48;99852.66;;;16.30;100.00
23473;BME280;11909;52.516;13.564;2023-08-06T07:24:17;99846.06;;;16.35;100.00
23473;BME280;11909;52.516;13.564;2023-08-06T07:26:45;99849.28;;;16.37;100.00
23473;BME280;11909;52.516;13.564;2023-08-06T07:29:13;99840.19;;;16.37;100.00
23473;BME280;11909;52.516;13.564;2023-08-06T07:31:46;99851.41;;;16.40;100.00
23473;BME280;11909;52.516;13.564;2023-08-06T07:34:14;99847.94;;;16.43;100.00
23473;BME280;11909;52.516;13.564;2023-08-06T07:36:43;99849.66;;;16.48;100.00
23473;BME280;11909;52.516;13.564;2023-08-06T07:39:11;99847.03;;;16.52;100.00
23473;BME280;11909;52.516;13.564;2023-08-06T07:41:41;99841.50;;;16.52;100.00
23473;BME280;11909;52.516;13.564;2023-08-06T07:44:08;99853.03;;;16.54;100.00
23473;BME280;11909;52.516;13.564;2023-08-06T07:46:37;99849.56;;;16.57;100.00
23473;BME280;11909;52.516;13.564;2023-08-06T07:49:05;99839.66;;;16.56;100.00
23473;BME280;11909;52.516;13.564;2023-08-06T07:51:33;99841.63;;;16.55;100.00
23473;BME280;11909;52.516;13.564;2023-08-06T07:54:01;99838.03;;;16.55;100.00
23473;BME280;11909;52.516;13.564;2023-08-06T07:56:30;99843.25;;;16.56;100.00
23473;BME280;11909;52.516;13.564;2023-08-06T07:58:59;99835.53;;;16.62;100.00
23473;BME280;11909;52.516;13.564;2023-08-06T08:01:27;99838.50;;;16.57;100.00
23473;BME280;11909;52.516;13.564;2023-08-06T08:03:54;99832.16;;;16.56;100.00
23473;BME280;11909;52.516;13.564;2023-08-06T08:06:23;99835.03;;;16.60;100.00
23473;BME280;11909;52.516;13.564;2023-08-06T08:08:50;99833.09;;;16.60;100.00
23473;BME280;11909;52.516;13.564;2023-08-06T08:11:20;99829.16;;;16.61;100.00
23473;BME280;11909;52.516;13.564;2023-08-06T08:13:48;99838.75;;;16.64;100.00
23473;BME280;11909;52.516;13.564;2023-08-06T08:16:17;99827.69;;;16.64;100.00
23473;BME280;11909;52.516;13.564;2023-08-06T08:18:45;99828.16;;;16.66;100.00
23473;BME280;11909;52.516;13.564;2023-08-06T08:21:13;99821.09;;;16.69;100.00
23473;BME280;11909;52.516;13.564;2023-08-06T08:23:43;99817.53;;;16.68;100.00
23473;BME280;11909;52.516;13.564;2023-08-06T08:26:12;99819.59;;;16.71;100.00
23473;BME280;11909;52.516;13.564;2023-08-06T08:28:39;99810.59;;;16.74;100.00
23473;BME280;11909;52.516;13.564;2023-08-06T08:31:08;99809.56;;;16.79;100.00
23473;BME280;11909;52.516;13.564;2023-08-06T08:33:37;99814.19;;;16.75;100.00
23473;BME280;11909;52.516;13.564;2023-08-06T08:36:05;99811.75;;;16.73;100.00
23473;BME280;11909;52.516;13.564;2023-08-06T08:38:33;99799.19;;;16.76;100.00
23473;BME280;11909;52.516;13.564;2023-08-06T08:41:01;99794.09;;;16.78;100.00
23473;BME280;11909;52.516;13.564;2023-08-06T08:43:30;99799.19;;;16.76;100.00
23473;BME280;11909;52.516;13.564;2023-08-06T08:45:58;99788.09;;;16.76;100.00
23473;BME280;11909;52.516;13.564;2023-08-06T08:48:27;99790.63;;;16.81;100.00
23473;BME280;11909;52.516;13.564;2023-08-06T08:50:57;99785.69;;;16.87;100.00
23473;BME280;11909;52.516;13.564;2023-08-06T08:53:25;99777.00;;;16.88;100.00
23473;BME280;11909;52.516;13.564;2023-08-06T08:55:54;99783.47;;;16.92;100.00
23473;BME280;11909;52.516;13.564;2023-08-06T08:58:23;99766.16;;;16.96;100.00
23473;BME280;11909;52.516;13.564;2023-08-06T09:00:51;99766.63;;;16.98;100.00
23473;BME280;11909;52.516;13.564;2023-08-06T09:03:20;99769.38;;;16.98;100.00
23473;BME280;11909;52.516;13.564;2023-08-06T09:05:50;99768.25;;;16.99;100.00
23473;BME280;11909;52.516;13.564;2023-08-06T09:08:24;99761.91;;;16.98;100.00
23473;BME280;11909;52.516;13.564;2023-08-06T09:10:55;99755.19;;;16.99;100.00
23473;BME280;11909;52.516;13.564;2023-08-06T09:13:25;99753.72;;;17.02;100.00
23473;BME280;11909;52.516;13.564;2023-08-06T09:15:53;99744.56;;;17.01;100.00
23473;BME280;11909;52.516;13.564;2023-08-06T09:18:25;99753.34;;;17.03;100.00
23473;BME280;11909;52.516;13.564;2023-08-06T09:20:55;99756.56;;;17.05;100.00
23473;BME280;11909;52.516;13.564;2023-08-06T09:23:29;99756.94;;;17.04;100.00
23473;BME280;11909;52.516;13.564;2023-08-06T09:25:57;99746.63;;;17.04;100.00
23473;BME280;11909;52.516;13.564;2023-08-06T09:28:36;99742.63;;;17.02;100.00
23473;BME280;11909;52.516;13.564;2023-08-06T09:31:04;99736.63;;;17.00;100.00
23473;BME280;11909;52.516;13.564;2023-08-06T09:33:32;99734.63;;;17.00;100.00
23473;BME280;11909;52.516;13.564;2023-08-06T09:36:07;99725.38;;;16.96;100.00
23473;BME280;11909;52.516;13.564;2023-08-06T09:38:39;99731.41;;;16.98;100.00
23473;BME280;11909;52.516;13.564;2023-08-06T09:41:07;99728.75;;;17.02;100.00
23473;BME280;11909;52.516;13.564;2023-08-06T09:43:42;99727.81;;;16.98;100.00
23473;BME280;11909;52.516;13.564;2023-08-06T09:46:13;99719.84;;;16.96;100.00
23473;BME280;11909;52.516;13.564;2023-08-06T09:48:46;99717.88;;;16.97;100.00
23473;BME280;11909;52.516;13.564;2023-08-06T09:51:14;99727.25;;;16.92;100.00
23473;BME280;11909;52.516;13.564;2023-08-06T09:53:45;99715.78;;;16.94;100.00
23473;BME280;11909;52.516;13.564;2023-08-06T09:56:15;99715.25;;;16.88;100.00
23473;BME280;11909;52.516;13.564;2023-08-06T09:58:47;99710.03;;;16.86;100.00
23473;BME280;11909;52.516;13.564;2023-08-06T10:01:16;99710.41;;;16.85;100.00
23473;BME280;11909;52.516;13.564;2023-08-06T10:03:44;99708.44;;;16.85;100.00
23473;BME280;11909;52.516;13.564;2023-08-06T10:06:13;99706.47;;;16.86;100.00
23473;BME280;11909;52.516;13.564;2023-08-06T10:08:41;99703.00;;;16.89;100.00
23473;BME280;11909;52.516;13.564;2023-08-06T10:11:11;99701.16;;;16.93;100.00
23473;BME280;11909;52.516;13.564;2023-08-06T10:13:39;99697.34;;;16.98;100.00
23473;BME280;11909;52.516;13.564;2023-08-06T10:16:07;99694.56;;;16.98;100.00
23473;BME280;11909;52.516;13.564;2023-08-06T10:18:37;99694.56;;;16.98;100.00
23473;BME280;11909;52.516;13.564;2023-08-06T10:21:08;99697.91;;;17.03;100.00
23473;BME280;11909;52.516;13.564;2023-08-06T10:23:36;99687.97;;;17.02;100.00
23473;BME280;11909;52.516;13.564;2023-08-06T10:26:05;99697.34;;;16.98;100.00
23473;BME280;11909;52.516;13.564;2023-08-06T10:28:38;99693.44;;;16.99;100.00
23473;BME280;11909;52.516;13.564;2023-08-06T10:31:06;99685.78;;;16.96;100.00
23473;BME280;11909;52.516;13.564;2023-08-06T10:33:42;99683.47;;;16.98;100.00
23473;BME280;11909;52.516;13.564;2023-08-06T10:36:11;99683.97;;;17.00;100.00
23473;BME280;11909;52.516;13.564;2023-08-06T10:38:46;99687.53;;;17.00;100.00
23473;BME280;11909;52.516;13.564;2023-08-06T10:41:16;99682.09;;;17.04;100.00
23473;BME280;11909;52.516;13.564;2023-08-06T10:43:47;99683.72;;;17.05;100.00
23473;BME280;11909;52.516;13.564;2023-08-06T10:46:22;99682.56;;;17.06;100.00
23473;BME280;11909;52.516;13.564;2023-08-06T10:48:50;99675.03;;;17.06;100.00
23473;BME280;11909;52.516;13.564;2023-08-06T10:51:19;99667.53;;;17.07;100.00
23473;BME280;11909;52.516;13.564;2023-08-06T10:53:48;99679.31;;;17.04;100.00
23473;BME280;11909;52.516;13.564;2023-08-06T10:56:17;99669.41;;;17.03;100.00
23473;BME280;11909;52.516;13.564;2023-08-06T10:58:47;99669.75;;;17.01;100.00
23473;BME280;11909;52.516;13.564;2023-08-06T11:01:16;99674.13;;;17.02;100.00
23473;BME280;11909;52.516;13.564;2023-08-06T11:03:45;99664.66;;;17.03;100.00
23473;BME280;11909;52.516;13.564;2023-08-06T11:06:17;99670.66;;;17.05;100.00
23473;BME280;11909;52.516;13.564;2023-08-06T11:08:48;99657.59;;;17.06;100.00
23473;BME280;11909;52.516;13.564;2023-08-06T11:11:16;99651.63;;;17.04;100.00
23473;BME280;11909;52.516;13.564;2023-08-06T11:13:45;99659.09;;;17.03;100.00
23473;BME280;11909;52.516;13.564;2023-08-06T11:16:15;99646.84;;;17.04;100.00
23473;BME280;11909;52.516;13.564;2023-08-06T11:18:45;99649.75;;;17.08;100.00
23473;BME280;11909;52.516;13.564;2023-08-06T11:21:14;99644.53;;;17.06;100.00
23473;BME280;11909;52.516;13.564;2023-08-06T11:23:42;99636.59;;;17.05;100.00
23473;BME280;11909;52.516;13.564;2023-08-06T11:26:09;99638.19;;;17.06;100.00
23473;BME280;11909;52.516;13.564;2023-08-06T11:28:40;99635.88;;;17.08;100.00
23473;BME280;11909;52.516;13.564;2023-08-06T11:31:18;99634.38;;;17.11;100.00
23473;BME280;11909;52.516;13.564;2023-08-06T11:33:47;99631.25;;;17.12;100.00
23473;BME280;11909;52.516;13.564;2023-08-06T11:36:14;99623.38;;;17.14;100.00
23473;BME280;11909;52.516;13.564;2023-08-06T11:38:42;99625.25;;;17.10;100.00
23473;BME280;11909;52.516;13.564;2023-08-06T11:41:12;99625.84;;;17.03;100.00
23473;BME280;11909;52.516;13.564;2023-08-06T11:43:40;99618.69;;;17.02;100.00
23473;BME280;11909;52.516;13.564;2023-08-06T11:46:07;99613.59;;;17.04;100.00
23473;BME280;11909;52.516;13.564;2023-08-06T11:48:51;99615.91;;;17.02;100.00
23473;BME280;11909;52.516;13.564;2023-08-06T11:51:22;99611.19;;;17.03;100.00
23473;BME280;11909;52.516;13.564;2023-08-06T11:53:51;99603.78;;;17.07;100.00
23473;BME280;11909;52.516;13.564;2023-08-06T11:56:19;99603.97;;;17.14;100.00
23473;BME280;11909;52.516;13.564;2023-08-06T11:58:47;99597.72;;;17.17;100.00
23473;BME280;11909;52.516;13.564;2023-08-06T12:01:15;99606.53;;;17.19;100.00
23473;BME280;11909;52.516;13.564;2023-08-06T12:03:43;99599.00;;;17.20;100.00
23473;BME280;11909;52.516;13.564;2023-08-06T12:06:12;99585.25;;;17.24;100.00
23473;BME280;11909;52.516;13.564;2023-08-06T12:08:40;99588.81;;;17.24;100.00
23473;BME280;11909;52.516;13.564;2023-08-06T12:11:08;99586.84;;;17.25;100.00
23473;BME280;11909;52.516;13.564;2023-08-06T12:13:36;99591.22;;;17.26;100.00
23473;BME280;11909;52.516;13.564;2023-08-06T12:16:04;99591.69;;;17.28;100.00
23473;BME280;11909;52.516;13.564;2023-08-06T12:18:32;99589.03;;;17.31;100.00
23473;BME280;11909;52.516;13.564;2023-08-06T12:21:01;99584.25;;;17.32;100.00
23473;BME280;11909;52.516;13.564;2023-08-06T12:23:30;99582.19;;;17.29;100.00
23473;BME280;11909;52.516;13.564;2023-08-06T12:26:00;99585.31;;;17.27;100.00
23473;BME280;11909;52.516;13.564;2023-08-06T12:28:27;99583.00;;;17.29;100.00
23473;BME280;11909;52.516;13.564;2023-08-06T12:30:55;99586.59;;;17.30;100.00
23473;BME280;11909;52.516;13.564;2023-08-06T12:33:23;99584.53;;;17.27;100.00
23473;BME280;11909;52.516;13.564;2023-08-06T12:35:51;99587.63;;;17.25;100.00
23473;BME280;11909;52.516;13.564;2023-08-06T12:38:20;99585.75;;;17.29;100.00
23473;BME280;11909;52.516;13.564;2023-08-06T12:40:50;99587.41;;;17.30;100.00
23473;BME280;11909;52.516;13.564;2023-08-06T12:43:18;99587.03;;;17.32;100.00
23473;BME280;11909;52.516;13.564;2023-08-06T12:45:46;99587.75;;;17.29;100.00